Time;durP1;ratioP1;P1;durP2;ratioP2;P2;SDS_P1;SDS_P2;PMS_P1;PMS_P2;Temp;Humidity;BMP_temperature;BMP_pressure;BME280_temperature;BME280_humidity;BME280_pressure;Samples;Min_cycle;Max_cycle;Signal;HPM_P1;HPM_P2
2021/12/05 00:26:17;;;;;;;31.25;12.02;;;;;;;0.55;77.18;97675.00;8381055;28;20527;-82
2021/12/05 00:30:59;;;;;;;34.47;12.50;;;;;;;0.50;77.23;97667.09;8405958;28;20409;-82
2021/12/05 01:16:19;;;;;;;32.85;11.88;;;;;;;0.45;76.09;97701.66;8433561;28;19927;-82
2021/12/05 01:20:22;;;;;;;35.78;12.60;;;;;;;0.46;75.84;97697.94;8431101;28;20083;-80
2021/12/05 02:10:54;;;;;;;34.47;13.48;;;;;;;0.35;76.03;97684.75;8327549;28;20050;-83
2021/12/05 02:41:11;;;;;;;32.10;12.05;;;;;;;0.38;77.60;97692.13;8429640;28;20405;-84
2021/12/05 02:45:13;;;;;;;28.10;11.82;;;;;;;0.37;77.79;97690.53;8429373;28;20048;-83
2021/12/05 02:49:15;;;;;;;28.95;12.43;;;;;;;0.39;77.73;97699.03;8429740;28;20546;-81
2021/12/05 02:53:20;;;;;;;30.38;13.23;;;;;;;0.39;77.79;97709.66;8430245;28;20048;-81
2021/12/05 03:01:49;;;;;;;31.05;13.48;;;;;;;0.36;78.38;97699.59;8324962;28;20088;-82
2021/12/05 03:05:59;;;;;;;29.48;13.02;;;;;;;0.34;78.98;97699.09;8326912;28;20172;-81
2021/12/05 03:10:00;;;;;;;35.20;13.05;;;;;;;0.35;79.32;97705.19;8325911;28;20530;-81
2021/12/05 03:14:01;;;;;;;28.85;12.75;;;;;;;0.32;79.90;97693.25;8299239;28;20161;-83
2021/12/05 03:18:03;;;;;;;31.80;13.75;;;;;;;0.25;80.89;97706.06;8261275;28;20060;-82
2021/12/05 03:22:03;;;;;;;32.00;12.85;;;;;;;0.15;82.11;97703.47;8312689;28;20136;-83
2021/12/05 03:26:06;;;;;;;34.65;13.50;;;;;;;0.02;83.62;97709.38;8301390;28;20080;-82
2021/12/05 03:30:10;;;;;;;31.23;13.93;;;;;;;-0.04;85.15;97715.78;8280974;28;20048;-83
2021/12/05 03:34:13;;;;;;;30.58;13.65;;;;;;;-0.06;85.91;97717.94;8301337;28;20107;-85
2021/12/05 03:38:14;;;;;;;32.90;14.40;;;;;;;-0.14;87.33;97710.53;8366829;28;20417;-82
2021/12/05 03:42:15;;;;;;;33.72;14.05;;;;;;;-0.15;87.67;97722.19;8428756;28;20067;-82
2021/12/05 03:46:17;;;;;;;38.88;16.00;;;;;;;-0.15;88.40;97720.34;8427377;28;20044;-82
2021/12/05 03:50:18;;;;;;;38.33;17.17;;;;;;;-0.16;88.95;97728.59;8422762;28;20072;-82
2021/12/05 03:54:19;;;;;;;38.13;16.45;;;;;;;-0.22;89.94;97725.16;8411826;28;20060;-82
2021/12/05 03:58:21;;;;;;;38.05;16.33;;;;;;;-0.20;90.99;97732.84;8426742;28;20048;-81
2021/12/05 04:02:22;;;;;;;37.35;16.98;;;;;;;-0.22;91.31;97734.97;8428381;28;20044;-81
2021/12/05 04:06:25;;;;;;;45.45;18.23;;;;;;;-0.22;91.91;97724.38;8412281;28;20053;-82
2021/12/05 04:10:28;;;;;;;36.53;17.77;;;;;;;-0.20;92.66;97730.19;8422902;28;20056;-81
2021/12/05 04:14:37;;;;;;;37.30;17.90;;;;;;;-0.18;92.58;97736.03;8431144;28;20054;-82
2021/12/05 04:18:37;;;;;;;38.97;18.00;;;;;;;-0.14;93.05;97737.06;8436349;28;20097;-81
2021/12/05 04:22:39;;;;;;;38.35;18.45;;;;;;;-0.09;92.55;97735.16;8434902;28;20044;-82
2021/12/05 04:26:41;;;;;;;41.28;18.10;;;;;;;-0.09;92.70;97745.00;8434100;28;20201;-82
2021/12/05 04:30:42;;;;;;;40.20;17.95;;;;;;;-0.06;92.68;97745.25;8434982;28;20052;-82
2021/12/05 04:34:42;;;;;;;35.50;17.02;;;;;;;-0.14;93.47;97750.31;8434366;28;20473;-83
2021/12/05 04:38:43;;;;;;;43.50;18.38;;;;;;;-0.18;94.05;97757.25;8416418;28;20110;-83
2021/12/05 04:42:47;;;;;;;41.53;18.08;;;;;;;-0.20;94.01;97751.41;8420010;28;20440;-82
2021/12/05 04:46:49;;;;;;;39.00;17.05;;;;;;;-0.21;94.21;97749.84;8401417;28;20534;-82
2021/12/05 04:50:50;;;;;;;33.35;16.55;;;;;;;-0.22;94.64;97749.03;8433659;28;20115;-82
2021/12/05 04:54:51;;;;;;;36.17;16.45;;;;;;;-0.23;95.01;97760.72;8434675;28;20054;-82
2021/12/05 04:58:54;;;;;;;36.25;16.92;;;;;;;-0.27;95.25;97757.03;8434703;28;20079;-88
2021/12/05 05:02:56;;;;;;;39.33;17.48;;;;;;;-0.22;95.50;97750.91;8432844;28;20079;-85
2021/12/05 05:07:01;;;;;;;38.08;18.30;;;;;;;-0.26;95.96;97771.06;8433577;28;20125;-85
2021/12/05 05:11:05;;;;;;;39.45;18.20;;;;;;;-0.26;96.21;97776.38;8409687;28;20059;-85
2021/12/05 05:15:07;;;;;;;37.80;18.35;;;;;;;-0.22;95.99;97783.53;8434517;28;20516;-84
2021/12/05 05:19:10;;;;;;;39.58;18.20;;;;;;;-0.24;95.89;97790.16;8432987;28;20044;-83
2021/12/05 05:23:25;;;;;;;35.53;18.13;;;;;;;-0.20;95.89;97788.56;8432451;28;20067;-83
2021/12/05 05:48:40;;;;;;;39.55;17.65;;;;;;;-0.30;97.07;97796.53;8399790;28;20051;-83
2021/12/05 05:52:40;;;;;;;55.65;24.73;;;;;;;-0.34;97.92;97806.13;8409112;28;20397;-82
2021/12/05 05:56:44;;;;;;;48.25;20.70;;;;;;;-0.37;97.90;97811.97;8423471;28;20048;-84
2021/12/05 06:01:04;;;;;;;57.33;25.05;;;;;;;-0.35;98.17;97820.44;8428052;28;20546;-84
2021/12/05 06:05:05;;;;;;;53.38;25.95;;;;;;;-0.30;98.40;97823.06;8416211;28;20189;-83
2021/12/05 06:09:06;;;;;;;43.70;22.13;;;;;;;-0.30;98.09;97828.38;8416880;28;20041;-82
2021/12/05 06:13:07;;;;;;;45.30;22.02;;;;;;;-0.26;97.75;97835.53;8404291;28;20533;-82
2021/12/05 06:17:08;;;;;;;48.70;21.77;;;;;;;-0.29;98.02;97832.63;8398185;28;20048;-81
2021/12/05 06:21:09;;;;;;;45.30;22.00;;;;;;;-0.28;97.41;97836.88;8408011;28;20055;-82
2021/12/05 06:25:16;;;;;;;44.80;21.40;;;;;;;-0.24;97.76;97837.91;8388887;28;20055;-84
2021/12/05 06:29:21;;;;;;;38.85;19.08;;;;;;;-0.16;96.76;97863.91;8352316;28;20052;-83
2021/12/05 06:38:00;;;;;;;53.15;21.42;;;;;;;-0.18;97.28;97860.72;8380408;28;20048;-82
2021/12/05 06:46:19;;;;;;;44.17;21.52;;;;;;;-0.17;97.01;97864.97;8239449;28;20126;-82
2021/12/05 06:50:20;;;;;;;44.83;21.73;;;;;;;-0.15;97.37;97868.13;8240528;28;20051;-82
2021/12/05 06:54:22;;;;;;;44.10;21.02;;;;;;;-0.07;97.10;97856.97;8205887;28;20072;-82
2021/12/05 06:58:23;;;;;;;44.58;21.33;;;;;;;-0.12;97.78;97872.91;8236931;28;20532;-82
2021/12/05 07:02:24;;;;;;;46.15;22.00;;;;;;;-0.10;97.87;97881.38;8231313;28;20050;-82
2021/12/05 07:06:28;;;;;;;42.83;20.30;;;;;;;0.00;97.58;97886.69;8245124;28;20057;-81
2021/12/05 07:10:31;;;;;;;40.28;20.25;;;;;;;0.02;97.51;97884.56;8248655;28;20051;-82
2021/12/05 07:19:10;;;;;;;46.13;20.73;;;;;;;-0.09;97.81;97893.59;8369642;28;20056;-83
2021/12/05 07:23:36;;;;;;;42.70;20.40;;;;;;;0.00;98.38;97892.00;8374794;28;20386;-80
2021/12/05 07:40:30;;;;;;;42.95;21.10;;;;;;;-0.03;98.42;97897.84;8398095;28;20045;-82
2021/12/05 07:44:31;;;;;;;45.47;21.63;;;;;;;-0.01;98.67;97901.03;8421274;28;20048;-82
2021/12/05 07:48:35;;;;;;;46.10;21.92;;;;;;;-0.02;98.63;97896.78;8427757;28;20047;-81
2021/12/05 07:52:43;;;;;;;51.83;23.00;;;;;;;0.10;97.99;97897.28;8391978;28;20087;-86
2021/12/05 07:56:50;;;;;;;60.15;25.52;;;;;;;0.14;97.79;97913.47;8391617;28;20048;-83
2021/12/05 08:01:24;;;;;;;57.25;24.80;;;;;;;0.18;97.75;97909.97;8386551;28;20071;-82
2021/12/05 08:18:23;;;;;;;46.97;21.67;;;;;;;0.16;97.98;97922.72;8380364;28;20482;-83
2021/12/05 08:22:24;;;;;;;59.45;26.45;;;;;;;0.15;98.49;97931.78;8371439;28;20044;-82
2021/12/05 08:26:31;;;;;;;51.33;23.00;;;;;;;0.25;97.98;97937.06;8423797;28;20093;-81
2021/12/05 08:30:33;;;;;;;50.63;23.27;;;;;;;0.36;97.51;97933.31;8408043;28;20052;-82
2021/12/05 08:39:26;;;;;;;51.28;22.10;;;;;;;0.41;97.10;97935.94;8427630;28;20197;-83
2021/12/05 09:23:02;;;;;;;52.83;24.70;;;;;;;0.85;94.28;97951.13;8345947;28;20045;-82
2021/12/05 10:14:26;;;;;;;46.60;20.63;;;;;;;1.27;93.36;97970.03;8426478;28;20040;-83
2021/12/05 10:36:20;;;;;;;54.50;23.55;;;;;;;1.48;92.41;97986.66;8356668;28;20080;-82
2021/12/05 10:40:41;;;;;;;51.80;22.27;;;;;;;1.49;92.53;97990.13;8327929;28;20092;-83
2021/12/05 10:44:44;;;;;;;63.20;26.67;;;;;;;1.50;92.45;97978.41;8358552;28;20132;-83
2021/12/05 10:49:15;;;;;;;69.38;27.13;;;;;;;1.53;92.31;97991.19;8344279;28;20045;-82
2021/12/05 10:53:32;;;;;;;79.38;31.33;;;;;;;1.55;92.68;98002.31;8198088;28;20070;-83
2021/12/05 10:57:40;;;;;;;76.75;31.65;;;;;;;1.59;92.45;97995.38;8182265;28;20055;-82
2021/12/05 11:01:54;;;;;;;78.93;32.92;;;;;;;1.61;92.49;97990.56;8198106;28;20062;-82
2021/12/05 11:05:56;;;;;;;83.18;33.88;;;;;;;1.62;92.66;97997.50;8182059;28;20048;-82
2021/12/05 11:09:59;;;;;;;71.57;30.15;;;;;;;1.64;92.58;98011.28;8197702;28;20058;-82
2021/12/05 11:14:03;;;;;;;79.55;32.65;;;;;;;1.66;92.79;98009.16;8282823;28;20073;-81
2021/12/05 11:18:04;;;;;;;78.35;31.58;;;;;;;1.66;92.81;98003.84;8265104;28;20493;-82
2021/12/05 11:22:17;;;;;;;77.38;33.08;;;;;;;1.69;92.87;98000.63;8287572;28;20046;-82
2021/12/05 11:26:19;;;;;;;86.05;35.75;;;;;;;1.69;92.51;98003.31;8308718;28;20053;-82
2021/12/05 11:30:30;;;;;;;94.18;38.08;;;;;;;1.72;93.02;98007.25;8381086;28;20135;-82
2021/12/05 11:34:31;;;;;;;93.18;37.70;;;;;;;1.73;93.02;98003.53;8422682;28;20047;-82
2021/12/05 11:38:34;;;;;;;97.85;38.60;;;;;;;1.76;92.79;98009.09;8430172;28;20047;-82
2021/12/05 11:42:53;;;;;;;90.05;36.38;;;;;;;1.76;92.93;98008.28;8410876;28;20052;-82
2021/12/05 11:46:54;;;;;;;77.45;33.33;;;;;;;1.74;93.06;98016.56;8429411;28;20061;-82
2021/12/05 11:50:56;;;;;;;68.72;30.02;;;;;;;1.75;93.46;98012.00;8405013;28;20052;-81
2021/12/05 11:54:57;;;;;;;71.60;29.75;;;;;;;1.75;94.03;98022.66;8425309;28;20051;-81
2021/12/05 11:59:26;;;;;;;69.07;30.10;;;;;;;1.71;94.18;98027.75;8429980;28;20036;-82
2021/12/05 12:03:35;;;;;;;76.65;30.58;;;;;;;1.71;94.75;98041.06;8429594;28;20044;-81
2021/12/05 12:07:35;;;;;;;;;;;;;;;1.67;95.17;98048.81;8428354;28;20054;-81
2021/12/05 12:11:36;;;;;;;98.72;33.72;;;;;;;1.64;95.23;98044.03;8428904;28;20304;-82
2021/12/05 12:15:42;;;;;;;84.65;30.67;;;;;;;1.64;95.27;98043.22;8428558;28;20040;-82
2021/12/05 12:19:49;;;;;;;83.80;30.98;;;;;;;1.64;95.34;98037.91;8428872;28;20044;-82
2021/12/05 12:23:53;;;;;;;84.38;31.05;;;;;;;1.64;95.64;98037.91;8412209;28;20126;-82
2021/12/05 12:27:54;;;;;;;91.03;31.63;;;;;;;1.67;95.80;98042.69;8427366;28;20040;-81
2021/12/05 12:32:01;;;;;;;85.30;29.30;;;;;;;1.63;95.96;98052.31;8416781;28;20050;-81
2021/12/05 12:36:03;;;;;;;81.13;28.27;;;;;;;1.63;95.83;98052.31;8399878;28;20056;-81
2021/12/05 12:40:04;;;;;;;70.95;25.58;;;;;;;1.63;96.10;98047.78;8402718;28;20072;-81
2021/12/05 12:44:07;;;;;;;69.18;25.80;;;;;;;1.59;96.17;98056.56;8427066;28;20121;-81
2021/12/05 12:48:15;;;;;;;79.95;26.38;;;;;;;1.60;96.40;98058.16;8433850;28;20047;-81
2021/12/05 12:52:18;;;;;;;87.90;27.35;;;;;;;1.61;96.59;98049.13;8434868;28;20127;-81
2021/12/05 12:56:22;;;;;;;90.32;27.73;;;;;;;1.63;96.68;98044.31;8397001;28;20060;-81
2021/12/05 13:00:26;;;;;;;85.50;27.65;;;;;;;1.59;96.83;98051.25;8397184;28;20066;-82
2021/12/05 13:13:26;;;;;;;73.82;24.35;;;;;;;1.51;97.56;98065.16;8396785;28;20155;-82
2021/12/05 13:17:42;;;;;;;75.60;26.00;;;;;;;1.53;97.58;98063.00;8396517;28;20055;-79
2021/12/05 13:21:46;;;;;;;73.93;24.70;;;;;;;1.55;97.67;98076.81;8396209;28;20041;-82
2021/12/05 13:26:15;;;;;;;67.50;22.17;;;;;;;1.57;97.34;98069.38;8399650;28;20052;-82
2021/12/05 13:30:31;;;;;;;80.32;23.30;;;;;;;1.55;97.65;98071.50;8430128;28;20032;-82
2021/12/05 13:34:59;;;;;;;78.93;25.55;;;;;;;1.54;97.69;98080.56;8389971;28;20041;-81
2021/12/05 13:39:00;;;;;;;70.80;24.88;;;;;;;1.52;98.08;98093.34;8322525;28;20033;-82
2021/12/05 13:43:06;;;;;;;76.53;24.92;;;;;;;1.50;98.04;98095.47;8394684;28;20053;-81
2021/12/05 13:47:18;;;;;;;79.78;26.90;;;;;;;1.48;98.21;98087.75;8378416;28;20041;-82
2021/12/05 13:51:23;;;;;;;103.22;30.08;;;;;;;1.48;98.25;98081.69;8336950;28;20111;-82
2021/12/05 13:55:58;;;;;;;97.82;28.13;;;;;;;1.50;98.20;98085.63;8329070;28;20049;-82
2021/12/05 14:00:00;;;;;;;109.43;32.45;;;;;;;1.45;98.57;98087.53;8329403;28;20419;-82
2021/12/05 14:04:16;;;;;;;100.03;30.63;;;;;;;1.48;98.46;98092.31;8362597;28;20391;-82
2021/12/05 14:08:17;;;;;;;112.82;30.45;;;;;;;1.42;98.47;98088.09;8390516;28;20076;-82
2021/12/05 14:12:24;;;;;;;121.32;33.25;;;;;;;1.48;98.63;98079.00;8377783;28;20051;-82
2021/12/05 14:16:37;;;;;;;121.97;33.03;;;;;;;1.47;98.77;98088.06;8394604;28;20052;-82
2021/12/05 14:20:39;;;;;;;130.43;32.30;;;;;;;1.45;98.61;98087.53;8365719;28;20484;-82
2021/12/05 14:24:44;;;;;;;132.38;30.58;;;;;;;1.43;99.04;98095.00;8395743;28;20477;-82
2021/12/05 14:29:21;;;;;;;131.38;29.35;;;;;;;1.48;98.85;98105.63;8414167;28;20040;-82
2021/12/05 14:33:22;;;;;;;97.35;26.88;;;;;;;1.48;98.85;98105.63;8431923;28;20127;-82
2021/12/05 14:37:25;;;;;;;81.35;26.17;;;;;;;1.46;98.66;98110.41;8430839;28;20066;-82
2021/12/05 14:41:30;;;;;;;95.30;26.52;;;;;;;1.46;98.78;98105.09;8430390;28;20127;-82
2021/12/05 14:45:36;;;;;;;97.57;25.50;;;;;;;1.43;98.94;98110.97;8430243;28;20134;-83
2021/12/05 14:49:45;;;;;;;87.75;26.88;;;;;;;1.41;98.97;98129.06;8411574;28;20059;-82
2021/12/05 14:53:48;;;;;;;82.10;26.08;;;;;;;1.38;99.04;98118.94;8376348;28;20048;-83
2021/12/05 14:57:57;;;;;;;70.63;24.05;;;;;;;1.36;99.02;98126.41;8359275;28;20544;-83
2021/12/05 15:01:58;;;;;;;72.05;25.30;;;;;;;1.33;99.34;98137.59;8369361;28;20112;-83
2021/12/05 15:06:04;;;;;;;64.13;23.38;;;;;;;1.33;98.79;98146.38;8389805;28;20040;-82
2021/12/05 15:10:05;;;;;;;61.28;22.20;;;;;;;1.37;98.77;98166.06;8373049;28;20048;-83
2021/12/05 15:14:29;;;;;;;69.13;26.40;;;;;;;1.35;98.20;98159.41;8351670;28;20135;-84
2021/12/05 15:18:32;;;;;;;64.63;24.48;;;;;;;1.33;98.50;98158.88;8308087;28;20061;-83
2021/12/05 15:22:34;;;;;;;62.45;22.23;;;;;;;1.32;98.61;98157.28;8323433;28;20059;-82
2021/12/05 15:26:35;;;;;;;58.88;24.23;;;;;;;1.31;98.92;98166.34;8363758;28;20110;-83
2021/12/05 15:30:44;;;;;;;63.38;23.13;;;;;;;1.30;98.61;98160.22;8367121;28;20048;-83
2021/12/05 15:34:50;;;;;;;61.63;23.92;;;;;;;1.31;98.33;98158.34;8363803;28;20056;-83
2021/12/05 15:38:51;;;;;;;64.13;24.42;;;;;;;1.30;98.27;98164.75;8374941;28;20052;-84
2021/12/05 15:42:59;;;;;;;58.80;22.02;;;;;;;1.31;98.52;98166.34;8375889;28;20053;-83
2021/12/05 15:47:07;;;;;;;56.17;21.95;;;;;;;1.31;98.59;98163.69;8370845;28;20078;-83
2021/12/05 15:51:12;;;;;;;63.83;24.88;;;;;;;1.31;98.18;98166.34;8392732;28;20094;-82
2021/12/05 15:55:20;;;;;;;57.15;22.77;;;;;;;1.34;98.18;98176.41;8375164;28;20068;-83
2021/12/05 15:59:21;;;;;;;67.20;25.15;;;;;;;1.37;97.41;98175.91;8391402;28;20138;-83
2021/12/05 16:03:24;;;;;;;65.85;25.52;;;;;;;1.33;97.65;98185.47;8375229;28;20150;-83
2021/12/05 16:07:28;;;;;;;76.63;26.38;;;;;;;1.30;97.85;98186.00;8376294;28;20083;-83
2021/12/05 16:11:29;;;;;;;131.70;28.10;;;;;;;1.31;97.77;98192.94;8394423;28;20114;-83
2021/12/05 16:15:31;;;;;;;68.47;26.38;;;;;;;1.30;97.97;98194.00;8431586;28;20446;-84
2021/12/05 16:19:35;;;;;;;83.82;28.45;;;;;;;1.27;98.08;98193.47;8392247;28;20105;-84
2021/12/05 16:23:36;;;;;;;150.63;31.02;;;;;;;1.26;97.95;98197.22;8412876;28;20423;-85
2021/12/05 16:27:50;;;;;;;151.02;43.55;;;;;;;1.23;97.74;98205.72;8410070;28;20075;-86
2021/12/05 16:31:55;;;;;;;91.78;31.08;;;;;;;1.22;97.65;98206.78;8426390;28;20071;-86
2021/12/05 16:35:58;;;;;;;79.72;28.20;;;;;;;1.20;97.43;98197.50;8423995;28;20052;-82
2021/12/05 16:39:59;;;;;;;72.63;27.33;;;;;;;1.13;97.29;98203.06;8402887;28;20048;-84
2021/12/05 16:44:03;;;;;;;68.63;25.58;;;;;;;1.12;97.27;98206.78;8409764;28;20097;-86
2021/12/05 16:48:05;;;;;;;78.05;29.45;;;;;;;1.10;96.80;98208.94;8425480;28;20469;-84
2021/12/05 16:52:29;;;;;;;70.78;28.80;;;;;;;1.07;96.83;98214.78;8426570;28;20044;-86
2021/12/05 16:56:43;;;;;;;80.82;32.85;;;;;;;1.01;96.54;98221.16;8426543;28;20055;-85
2021/12/05 17:00:52;;;;;;;80.18;30.25;;;;;;;0.93;96.54;98219.06;8421896;28;20397;-87
2021/12/05 17:05:01;;;;;;;74.97;27.67;;;;;;;0.95;96.86;98227.59;8426442;28;20044;-84
2021/12/05 17:09:11;;;;;;;71.82;28.48;;;;;;;0.94;96.81;98235.81;8412560;28;20059;-83
2021/12/05 17:13:24;;;;;;;76.60;29.02;;;;;;;0.94;96.55;98247.25;8425053;28;20072;-84
2021/12/05 17:17:32;;;;;;;85.25;30.70;;;;;;;0.92;96.20;98265.31;8406450;28;20063;-82
2021/12/05 17:21:47;;;;;;;;;;;;;;;0.89;96.05;98260.56;8412382;28;20098;-83
2021/12/05 17:25:52;;;;;;;79.72;28.25;;;;;;;0.87;96.01;98278.63;8392107;28;19920;-85
2021/12/05 17:29:53;;;;;;;77.85;26.85;;;;;;;0.83;95.91;98288.19;8424589;28;20142;-84
2021/12/05 17:33:58;;;;;;;99.20;29.70;;;;;;;0.83;95.92;98277.56;8429866;28;20048;-84
2021/12/05 17:37:59;;;;;;;155.35;30.70;;;;;;;0.84;95.87;98279.97;8413349;28;20481;-85
2021/12/05 17:42:05;;;;;;;104.97;28.20;;;;;;;0.84;95.83;98279.16;8430276;28;20075;-83
2021/12/05 17:46:06;;;;;;;125.60;31.80;;;;;;;0.79;96.00;98276.50;8428726;28;20439;-85
2021/12/05 17:50:12;;;;;;;116.10;30.83;;;;;;;0.76;96.05;98282.31;8432757;28;20392;-84
2021/12/05 17:54:24;;;;;;;110.25;29.80;;;;;;;0.77;96.12;98289.25;8432454;28;20048;-85
2021/12/05 18:02:56;;;;;;;150.43;28.63;;;;;;;0.72;96.18;98286.59;8361447;28;20052;-84
2021/12/05 18:06:58;;;;;;;146.65;30.67;;;;;;;0.69;96.07;98281.78;8345112;28;20061;-84
2021/12/05 18:11:02;;;;;;;144.65;30.77;;;;;;;0.71;96.05;98290.28;8361188;28;20118;-83
2021/12/05 18:15:11;;;;;;;154.38;29.60;;;;;;;0.68;95.83;98286.31;8344651;28;20075;-83
2021/12/05 18:19:17;;;;;;;189.60;31.13;;;;;;;0.66;95.84;98298.25;8344584;28;20056;-83
2021/12/05 18:23:19;;;;;;;184.88;28.88;;;;;;;0.61;95.92;98306.22;8344265;28;20053;-85
2021/12/05 18:27:20;;;;;;;227.10;29.27;;;;;;;0.60;96.18;98304.63;8326505;28;20049;-83
2021/12/05 18:31:25;;;;;;;258.75;29.30;;;;;;;0.63;96.07;98309.44;8310676;28;20064;-83
2021/12/05 18:35:31;;;;;;;234.07;29.15;;;;;;;0.62;96.39;98307.84;8343750;28;20049;-83
2021/12/05 18:39:38;;;;;;;228.07;28.55;;;;;;;0.63;96.54;98314.75;8404575;28;20127;-83
2021/12/05 18:43:41;;;;;;;194.15;32.00;;;;;;;0.64;96.18;98321.63;8430519;28;20056;-83
2021/12/05 18:47:42;;;;;;;261.45;30.35;;;;;;;0.60;96.01;98325.88;8429847;28;20051;-82
2021/12/05 18:51:43;;;;;;;188.68;33.90;;;;;;;0.55;96.20;98328.53;8431323;28;20044;-83
2021/12/05 18:55:45;;;;;;;346.10;31.35;;;;;;;0.57;96.33;98347.69;8429243;28;20055;-83
2021/12/05 18:59:59;;;;;;;254.57;29.52;;;;;;;0.52;96.65;98350.31;8430267;28;20128;-83
2021/12/05 19:08:37;;;;;;;254.10;34.22;;;;;;;0.52;96.74;98360.94;8371181;28;20048;-85
2021/12/05 19:12:38;;;;;;;171.52;33.45;;;;;;;0.51;96.69;98348.72;8382357;28;20354;-85
2021/12/05 19:16:40;;;;;;;229.18;32.08;;;;;;;0.51;97.09;98359.34;8391759;28;20055;-84
2021/12/05 19:20:41;;;;;;;246.93;31.30;;;;;;;0.52;97.11;98360.94;8387682;28;20053;-84
2021/12/05 19:24:43;;;;;;;205.80;30.95;;;;;;;0.42;96.92;98370.47;8356957;28;20575;-84
2021/12/05 19:28:44;;;;;;;238.38;32.80;;;;;;;0.45;97.39;98371.00;8390339;28;20044;-84
2021/12/05 19:32:46;;;;;;;235.77;33.63;;;;;;;0.50;97.49;98379.00;8392075;28;20091;-84
2021/12/05 19:36:47;;;;;;;270.33;34.08;;;;;;;0.49;97.23;98382.69;8419000;28;20435;-84
2021/12/05 19:40:48;;;;;;;214.07;34.35;;;;;;;0.53;97.35;98383.81;8405043;28;20131;-84
2021/12/05 19:44:50;;;;;;;283.60;36.75;;;;;;;0.55;97.20;98381.66;8380127;28;20052;-83
2021/12/05 19:48:51;;;;;;;271.88;36.10;;;;;;;0.54;97.34;98390.69;8395717;28;20051;-83
2021/12/05 19:52:54;;;;;;;217.57;37.47;;;;;;;0.53;97.25;98381.16;8415857;28;20048;-84
2021/12/05 19:56:57;;;;;;;359.67;37.85;;;;;;;0.55;97.19;98376.34;8395856;28;20059;-84
2021/12/05 20:01:03;;;;;;;310.10;41.63;;;;;;;0.52;96.95;98387.50;8404989;28;20040;-84
2021/12/05 20:05:04;;;;;;;254.13;36.92;;;;;;;0.50;96.99;98379.00;8401453;28;20037;-84
2021/12/05 20:09:08;;;;;;;228.10;35.17;;;;;;;0.51;97.18;98380.59;8398911;28;20047;-84
2021/12/05 20:13:10;;;;;;;209.82;36.20;;;;;;;0.48;97.44;98391.75;8409868;28;20529;-85
2021/12/05 20:17:31;;;;;;;244.38;42.25;;;;;;;0.49;97.50;98388.00;8399959;28;20492;-84
2021/12/05 20:21:36;;;;;;;271.33;37.92;;;;;;;0.46;97.93;98389.34;8368183;28;20542;-85
2021/12/05 20:25:38;;;;;;;261.95;39.60;;;;;;;0.40;97.77;98375.25;8341965;28;20056;-85
2021/12/05 20:29:39;;;;;;;267.10;43.45;;;;;;;0.39;97.82;98384.28;8366761;28;20048;-85
2021/12/05 20:33:40;;;;;;;235.20;43.00;;;;;;;0.41;98.13;98379.50;8323280;28;20431;-84
2021/12/05 20:37:45;;;;;;;223.75;42.00;;;;;;;0.41;97.99;98368.88;8354049;28;20415;-85
2021/12/05 20:41:46;;;;;;;195.73;41.47;;;;;;;0.45;98.20;98376.31;8345258;28;20144;-84
2021/12/05 20:45:49;;;;;;;223.15;42.33;;;;;;;0.52;97.73;98376.88;8361911;28;20390;-84
2021/12/05 20:49:50;;;;;;;213.10;42.38;;;;;;;0.49;97.86;98382.69;8339556;28;20044;-84
2021/12/05 20:53:53;;;;;;;178.25;46.20;;;;;;;0.53;97.29;98386.47;8410320;28;20067;-84
2021/12/05 20:57:54;;;;;;;214.18;54.95;;;;;;;0.53;97.71;98391.78;8426934;28;20493;-84
2021/12/05 21:01:55;;;;;;;151.00;43.70;;;;;;;0.57;97.33;98406.13;8396910;28;20044;-84
2021/12/05 21:05:59;;;;;;;150.38;43.67;;;;;;;0.56;97.40;98401.88;8427104;28;20063;-84
2021/12/05 21:10:01;;;;;;;165.43;43.83;;;;;;;0.51;97.13;98407.16;8414805;28;20048;-84
2021/12/05 21:14:03;;;;;;;137.52;42.17;;;;;;;0.50;97.43;98410.88;8420532;28;20052;-84
2021/12/05 21:18:04;;;;;;;154.88;44.30;;;;;;;0.54;97.54;98422.56;8428771;28;20068;-84
2021/12/05 21:22:06;;;;;;;144.25;43.08;;;;;;;0.54;97.42;98422.56;8415532;28;20076;-84
2021/12/05 21:26:08;;;;;;;144.75;42.35;;;;;;;0.48;97.17;98423.63;8347842;28;20140;-84
2021/12/05 21:30:12;;;;;;;204.25;44.08;;;;;;;0.51;97.33;98417.78;8307045;28;20611;-83
2021/12/05 21:34:13;;;;;;;159.80;44.15;;;;;;;0.50;97.04;98416.19;8350032;28;20053;-84
2021/12/05 21:38:16;;;;;;;182.45;42.67;;;;;;;0.56;97.15;98425.78;8341749;28;20061;-84
2021/12/05 21:42:17;;;;;;;202.77;45.88;;;;;;;0.56;96.73;98431.09;8313605;28;20147;-83
2021/12/05 21:46:19;;;;;;;182.15;45.55;;;;;;;0.57;97.00;98427.38;8326063;28;20092;-83
2021/12/05 21:50:21;;;;;;;159.95;45.40;;;;;;;0.57;96.68;98427.38;8340894;28;20057;-84
2021/12/05 21:54:23;;;;;;;163.48;44.85;;;;;;;0.58;96.84;98423.66;8297462;28;20065;-83
2021/12/05 21:58:24;;;;;;;153.75;45.42;;;;;;;0.59;96.64;98435.88;8355376;28;20188;-84
2021/12/05 22:02:25;;;;;;;145.48;43.95;;;;;;;0.58;96.60;98436.97;8383081;28;20060;-84
2021/12/05 22:06:26;;;;;;;150.45;44.22;;;;;;;0.60;96.79;98421.53;8417138;28;20135;-84
2021/12/05 22:10:28;;;;;;;128.13;44.17;;;;;;;0.60;96.41;98426.84;8418465;28;20125;-84
2021/12/05 22:14:29;;;;;;;141.82;45.30;;;;;;;0.60;96.68;98421.53;8420266;28;20040;-84
2021/12/05 22:18:31;;;;;;;108.75;41.17;;;;;;;0.63;96.75;98424.50;8420492;28;20086;-83
2021/12/05 22:22:32;;;;;;;116.72;43.05;;;;;;;0.60;96.68;98422.34;8411552;28;20044;-85
2021/12/05 22:26:36;;;;;;;124.78;43.63;;;;;;;0.62;96.59;98424.75;8414260;28;20043;-85
2021/12/05 22:30:39;;;;;;;108.88;40.40;;;;;;;0.61;96.80;98425.78;8421196;28;20119;-84
2021/12/05 22:34:40;;;;;;;116.90;40.00;;;;;;;0.64;96.32;98427.91;8418296;28;20225;-85
2021/12/05 22:38:42;;;;;;;111.93;39.10;;;;;;;0.60;96.22;98440.13;8419835;28;20052;-85
2021/12/05 22:42:43;;;;;;;115.32;38.55;;;;;;;0.60;96.21;98448.91;8425393;28;20059;-86
2021/12/05 22:46:44;;;;;;;105.18;39.75;;;;;;;0.58;96.15;98450.25;8419724;28;20067;-84
2021/12/05 22:50:45;;;;;;;112.55;37.85;;;;;;;0.56;96.48;98452.34;8428892;28;20123;-85
2021/12/05 22:54:47;;;;;;;109.10;38.78;;;;;;;0.58;96.28;98450.25;8418312;28;20473;-86
2021/12/05 22:58:48;;;;;;;105.43;36.60;;;;;;;0.56;95.88;98457.66;8420917;28;20048;-85
2021/12/05 23:02:49;;;;;;;106.90;34.58;;;;;;;0.54;96.02;98454.44;8413897;28;20052;-86
2021/12/05 23:06:50;;;;;;;99.88;34.80;;;;;;;0.57;95.85;98451.28;8426814;28;20047;-85
2021/12/05 23:10:51;;;;;;;89.78;32.45;;;;;;;0.57;95.74;98453.94;8413940;28;20043;-85
2021/12/05 23:14:52;;;;;;;98.55;35.55;;;;;;;0.53;95.77;98452.88;8408531;28;20139;-85
2021/12/05 23:18:53;;;;;;;86.45;32.75;;;;;;;0.56;95.28;98458.47;8408826;28;20052;-86
2021/12/05 23:22:55;;;;;;;86.95;33.05;;;;;;;0.56;95.69;98452.34;8422105;28;20119;-85
2021/12/05 23:26:56;;;;;;;83.20;31.52;;;;;;;0.56;95.71;98462.97;8415415;28;20508;-86
2021/12/05 23:30:57;;;;;;;89.50;31.88;;;;;;;0.51;95.76;98454.97;8409751;28;20054;-84
2021/12/05 23:34:58;;;;;;;81.68;31.33;;;;;;;0.49;95.30;98465.06;8412369;28;20043;-85
2021/12/05 23:39:01;;;;;;;88.85;32.50;;;;;;;0.51;95.47;98486.88;8419895;28;20062;-82
2021/12/05 23:43:03;;;;;;;89.75;33.28;;;;;;;0.51;95.26;98492.19;8402167;28;20045;-85
2021/12/05 23:47:04;;;;;;;88.78;32.25;;;;;;;0.48;95.13;98482.09;8413236;28;20044;-87
2021/12/05 23:51:07;;;;;;;88.00;32.80;;;;;;;0.46;95.13;98481.53;8406111;28;20500;-85
2021/12/05 23:55:12;;;;;;;83.90;30.60;;;;;;;0.41;95.23;98477.78;8416965;28;20051;-85
2021/12/05 23:59:14;;;;;;;93.32;33.95;;;;;;;0.48;95.10;98493.47;8412379;28;20048;-86
